Time;durP1;ratioP1;P1;durP2;ratioP2;P2;SDS_P1;SDS_P2;PMS_P1;PMS_P2;Temp;Humidity;BMP_temperature;BMP_pressure;BME280_temperature;BME280_humidity;BME280_pressure;Samples;Min_cycle;Max_cycle;Signal;HPM_P1;HPM_P2
2021/11/09 00:00:23;;;;;;;15.57;9.18;;;;;;;;;;5053812;28;20033;-57
2021/11/09 00:02:49;;;;;;;11.15;7.90;;;;;;;;;;5047186;28;20029;-58
2021/11/09 00:05:18;;;;;;;14.20;8.85;;;;;;;;;;5033458;28;20071;-55
2021/11/09 00:07:53;;;;;;;15.00;8.20;;;;;;;;;;5032581;28;20037;-57
2021/11/09 00:10:20;;;;;;;15.27;8.00;;;;;;;;;;5033235;28;20037;-57
2021/11/09 00:12:58;;;;;;;12.43;8.32;;;;;;;;;;5033070;28;20415;-58
2021/11/09 00:15:25;;;;;;;12.43;9.18;;;;;;;;;;5033248;28;20068;-55
2021/11/09 00:17:53;;;;;;;16.15;7.78;;;;;;;;;;5032364;28;20030;-57
2021/11/09 00:20:20;;;;;;;12.57;7.95;;;;;;;;;;5033024;28;20375;-57
2021/11/09 00:22:47;;;;;;;9.40;7.75;;;;;;;;;;5032701;28;20033;-56
2021/11/09 00:25:14;;;;;;;9.05;7.72;;;;;;;;;;5032771;28;20033;-56
2021/11/09 00:27:40;;;;;;;16.67;9.10;;;;;;;;;;5031832;28;20026;-55
2021/11/09 00:30:08;;;;;;;16.38;7.45;;;;;;;;;;5032905;28;20040;-55
2021/11/09 00:32:34;;;;;;;11.35;8.57;;;;;;;;;;5032688;28;20109;-55
2021/11/09 00:35:00;;;;;;;9.63;8.52;;;;;;;;;;5032776;28;20037;-55
2021/11/09 00:37:26;;;;;;;9.77;8.77;;;;;;;;;;5031985;28;20450;-55
2021/11/09 00:39:52;;;;;;;9.18;8.15;;;;;;;;;;5032823;28;20083;-55
2021/11/09 00:42:18;;;;;;;14.63;9.55;;;;;;;;;;5032473;28;20025;-54
2021/11/09 00:44:44;;;;;;;10.02;8.77;;;;;;;;;;5032597;28;20060;-53
2021/11/09 00:47:10;;;;;;;15.93;8.20;;;;;;;;;;5031877;28;20053;-55
2021/11/09 00:49:37;;;;;;;10.50;7.70;;;;;;;;;;5032619;28;20105;-53
2021/11/09 00:52:04;;;;;;;9.88;7.97;;;;;;;;;;5032422;28;20488;-56
2021/11/09 00:54:30;;;;;;;13.10;8.70;;;;;;;;;;5031907;28;20040;-52
2021/11/09 00:56:56;;;;;;;8.00;6.80;;;;;;;;;;5031809;28;20022;-53
2021/11/09 00:59:23;;;;;;;10.05;8.27;;;;;;;;;;5032535;28;20064;-55
2021/11/09 01:01:49;;;;;;;10.95;7.22;;;;;;;;;;5032593;28;20453;-56
2021/11/09 01:04:15;;;;;;;9.43;8.18;;;;;;;;;;5049942;28;20053;-57
2021/11/09 01:06:41;;;;;;;13.80;8.85;;;;;;;;;;5052165;28;20459;-53
2021/11/09 01:09:07;;;;;;;12.45;9.23;;;;;;;;;;5051956;28;20075;-53
2021/11/09 01:11:34;;;;;;;9.65;8.65;;;;;;;;;;5051980;28;20094;-57
2021/11/09 01:14:01;;;;;;;13.20;8.90;;;;;;;;;;5052088;28;20033;-54
2021/11/09 01:16:27;;;;;;;15.10;9.18;;;;;;;;;;5051442;28;20055;-55
2021/11/09 01:18:54;;;;;;;15.65;9.88;;;;;;;;;;5052188;28;20036;-55
2021/11/09 01:21:21;;;;;;;13.07;9.10;;;;;;;;;;5052111;28;20029;-53
2021/11/09 01:23:49;;;;;;;16.00;11.77;;;;;;;;;;5051704;28;20025;-55
2021/11/09 01:26:16;;;;;;;16.60;11.15;;;;;;;;;;5051521;28;20031;-56
2021/11/09 01:28:43;;;;;;;18.60;11.48;;;;;;;;;;5052159;28;20025;-52
2021/11/09 01:31:09;;;;;;;16.00;12.55;;;;;;;;;;5052015;28;20033;-51
2021/11/09 01:33:35;;;;;;;17.67;13.75;;;;;;;;;;5051621;28;20037;-56
2021/11/09 01:36:01;;;;;;;15.95;12.82;;;;;;;;;;5052121;28;20364;-57
2021/11/09 01:38:27;;;;;;;18.10;11.93;;;;;;;;;;5051033;28;20060;-52
2021/11/09 01:40:54;;;;;;;14.60;10.57;;;;;;;;;;5052229;28;20040;-55
2021/11/09 01:43:21;;;;;;;18.42;10.88;;;;;;;;;;5051862;28;20025;-54
2021/11/09 01:45:48;;;;;;;15.55;10.23;;;;;;;;;;5051802;28;20095;-53
2021/11/09 01:48:16;;;;;;;16.95;9.52;;;;;;;;;;5051508;28;20073;-53
2021/11/09 01:50:44;;;;;;;12.02;9.73;;;;;;;;;;5051627;28;20522;-55
2021/11/09 01:53:10;;;;;;;13.95;9.07;;;;;;;;;;5051644;28;20057;-53
2021/11/09 01:55:37;;;;;;;11.68;8.68;;;;;;;;;;5084135;28;20509;-53
2021/11/09 01:58:04;;;;;;;13.38;8.68;;;;;;;;;;5051014;28;20057;-54
2021/11/09 02:00:32;;;;;;;12.82;9.55;;;;;;;;;;5051672;28;20368;-55
2021/11/09 02:02:58;;;;;;;17.33;9.00;;;;;;;;;;5044326;28;20030;-53
2021/11/09 02:05:27;;;;;;;13.43;8.55;;;;;;;;;;5032124;28;20030;-53
2021/11/09 02:07:54;;;;;;;12.18;7.97;;;;;;;;;;5034914;28;20030;-54
2021/11/09 02:10:22;;;;;;;14.43;9.80;;;;;;;;;;5035727;28;20036;-55
2021/11/09 02:12:48;;;;;;;14.13;8.98;;;;;;;;;;5035549;28;20029;-55
2021/11/09 02:15:14;;;;;;;10.98;7.18;;;;;;;;;;5035331;28;20030;-55
2021/11/09 02:17:41;;;;;;;13.63;7.50;;;;;;;;;;5034637;28;20040;-53
2021/11/09 02:20:08;;;;;;;15.70;8.38;;;;;;;;;;5034978;28;20030;-55
2021/11/09 02:22:34;;;;;;;11.57;8.75;;;;;;;;;;5035196;28;20029;-53
2021/11/09 02:25:05;;;;;;;11.77;9.57;;;;;;;;;;5035360;28;20083;-54
2021/11/09 02:27:31;;;;;;;16.05;9.43;;;;;;;;;;5034587;28;20029;-55
2021/11/09 02:29:57;;;;;;;11.43;9.57;;;;;;;;;;5034684;28;20017;-52
2021/11/09 02:32:23;;;;;;;15.07;10.90;;;;;;;;;;5035023;28;20075;-55
2021/11/09 02:34:50;;;;;;;12.63;9.32;;;;;;;;;;5034508;28;20468;-53
2021/11/09 02:37:17;;;;;;;10.25;9.30;;;;;;;;;;5034232;28;20068;-56
2021/11/09 02:39:43;;;;;;;10.93;8.18;;;;;;;;;;5035074;28;20083;-57
2021/11/09 02:42:11;;;;;;;13.82;9.77;;;;;;;;;;5035016;28;20051;-55
2021/11/09 02:44:37;;;;;;;11.02;8.40;;;;;;;;;;5034750;28;20030;-56
2021/11/09 02:47:07;;;;;;;13.40;9.45;;;;;;;;;;5033971;28;20074;-56
2021/11/09 02:52:15;;;;;;;12.48;8.90;;;;;;;;;;5034997;28;20395;-53
2021/11/09 02:54:45;;;;;;;14.77;8.43;;;;;;;;;;5034612;28;20075;-56
2021/11/09 02:57:51;;;;;;;16.58;9.73;;;;;;;;;;5033980;28;20036;-52
2021/11/09 03:00:26;;;;;;;10.63;8.20;;;;;;;;;;5031546;28;20068;-54
2021/11/09 03:02:58;;;;;;;17.55;9.35;;;;;;;;;;5041033;28;20031;-53
2021/11/09 03:05:32;;;;;;;8.85;7.82;;;;;;;;;;5054224;28;20036;-53
2021/11/09 03:08:16;;;;;;;18.65;9.38;;;;;;;;;;5053565;28;20059;-53
2021/11/09 03:10:47;;;;;;;13.13;8.00;;;;;;;;;;5054568;28;20044;-54
2021/11/09 03:13:13;;;;;;;15.43;6.68;;;;;;;;;;5054338;28;20036;-51
2021/11/09 03:15:39;;;;;;;10.75;7.50;;;;;;;;;;5054260;28;20057;-55
2021/11/09 03:18:12;;;;;;;10.32;7.78;;;;;;;;;;5053403;28;20064;-54
2021/11/09 03:20:45;;;;;;;16.05;8.43;;;;;;;;;;5054132;28;20098;-56
2021/11/09 03:45:13;;;;;;;17.48;8.95;;;;;;;;;;5053891;28;20040;-52
2021/11/09 03:47:42;;;;;;;11.18;7.22;;;;;;;;;;5052783;28;20029;-56
2021/11/09 03:50:09;;;;;;;12.23;8.63;;;;;;;;;;5053347;28;20554;-56
2021/11/09 03:52:43;;;;;;;9.35;7.40;;;;;;;;;;5053535;28;20120;-55
2021/11/09 03:55:18;;;;;;;10.45;7.85;;;;;;;;;;5053563;28;20013;-56
2021/11/09 03:58:02;;;;;;;7.70;6.63;;;;;;;;;;5052830;28;20024;-54
2021/11/09 04:00:33;;;;;;;11.55;8.20;;;;;;;;;;5053521;28;20104;-54
2021/11/09 04:03:03;;;;;;;10.48;6.68;;;;;;;;;;5046109;28;20026;-56
2021/11/09 04:05:35;;;;;;;16.95;7.85;;;;;;;;;;5033342;28;20030;-56
2021/11/09 04:08:27;;;;;;;7.25;5.65;;;;;;;;;;5032975;28;20022;-50
2021/11/09 04:13:28;;;;;;;8.63;7.70;;;;;;;;;;5033265;28;20495;-53
2021/11/09 04:23:50;;;;;;;7.30;6.47;;;;;;;;;;5033071;28;20095;-55
2021/11/09 05:11:45;;;;;;;9.47;5.67;;;;;;;;;;5052240;28;20540;-56
2021/11/09 05:14:12;;;;;;;8.95;6.45;;;;;;;;;;5052015;28;20033;-56
2021/11/09 05:16:41;;;;;;;9.75;6.75;;;;;;;;;;5051481;28;20425;-53
2021/11/09 05:19:08;;;;;;;12.77;7.17;;;;;;;;;;5052037;28;20445;-52
2021/11/09 05:21:34;;;;;;;12.82;6.60;;;;;;;;;;5052025;28;20378;-55
2021/11/09 05:24:01;;;;;;;13.73;8.27;;;;;;;;;;5052098;28;20096;-55
2021/11/09 05:26:27;;;;;;;11.63;7.63;;;;;;;;;;5050949;28;20021;-56
2021/11/09 05:28:53;;;;;;;11.75;7.18;;;;;;;;;;5051815;28;20039;-53
2021/11/09 05:31:19;;;;;;;11.43;8.25;;;;;;;;;;5052037;28;20503;-56
2021/11/09 05:33:47;;;;;;;9.65;6.50;;;;;;;;;;5051677;28;20033;-56
2021/11/09 05:36:13;;;;;;;12.77;7.40;;;;;;;;;;5051664;28;20131;-56
2021/11/09 05:38:47;;;;;;;11.88;8.38;;;;;;;;;;5050726;28;20044;-52
2021/11/09 05:41:15;;;;;;;13.80;7.75;;;;;;;;;;5067025;28;20108;-53
2021/11/09 05:43:41;;;;;;;10.48;6.88;;;;;;;;;;5075903;28;20024;-55
2021/11/09 05:46:08;;;;;;;10.02;6.88;;;;;;;;;;5069429;28;20029;-55
2021/11/09 05:48:35;;;;;;;10.63;7.90;;;;;;;;;;5054433;28;20048;-55
2021/11/09 05:51:01;;;;;;;12.85;6.65;;;;;;;;;;5055468;28;20386;-55
2021/11/09 05:53:27;;;;;;;8.57;5.82;;;;;;;;;;5054088;28;20040;-56
2021/11/09 05:55:53;;;;;;;10.80;6.80;;;;;;;;;;5054904;28;20490;-55
2021/11/09 05:58:19;;;;;;;8.90;6.15;;;;;;;;;;5053382;28;20033;-54
2021/11/09 06:00:45;;;;;;;7.97;6.55;;;;;;;;;;5054851;28;20135;-56
2021/11/09 06:03:11;;;;;;;9.77;5.95;;;;;;;;;;5054194;28;20032;-52
2021/11/09 06:05:37;;;;;;;8.85;6.20;;;;;;;;;;5055044;28;20031;-53
2021/11/09 06:08:03;;;;;;;9.53;7.33;;;;;;;;;;5054296;28;20390;-55
2021/11/09 06:10:29;;;;;;;12.55;8.25;;;;;;;;;;5055309;28;20031;-54
2021/11/09 06:12:55;;;;;;;10.95;7.80;;;;;;;;;;5055507;28;20386;-54
2021/11/09 06:15:21;;;;;;;9.33;8.00;;;;;;;;;;5054945;28;20068;-57
2021/11/09 06:17:47;;;;;;;8.95;6.30;;;;;;;;;;5054713;28;20029;-56
2021/11/09 06:20:13;;;;;;;8.77;5.78;;;;;;;;;;5055441;28;20387;-54
2021/11/09 06:22:39;;;;;;;6.70;6.00;;;;;;;;;;5054982;28;20033;-53
2021/11/09 06:25:06;;;;;;;9.20;6.43;;;;;;;;;;5055135;28;20029;-56
2021/11/09 06:27:32;;;;;;;8.77;5.43;;;;;;;;;;5054405;28;20029;-56
2021/11/09 06:29:58;;;;;;;11.35;5.22;;;;;;;;;;5054983;28;20032;-54
2021/11/09 06:32:24;;;;;;;10.30;5.38;;;;;;;;;;5054775;28;20029;-52
2021/11/09 06:34:50;;;;;;;5.45;4.88;;;;;;;;;;5055100;28;20448;-53
2021/11/09 06:37:16;;;;;;;6.38;4.13;;;;;;;;;;5054318;28;20035;-56
2021/11/09 06:39:42;;;;;;;9.75;5.28;;;;;;;;;;5054971;28;20043;-56
2021/11/09 06:42:08;;;;;;;5.60;4.88;;;;;;;;;;5055046;28;20033;-56
2021/11/09 06:44:34;;;;;;;12.15;5.00;;;;;;;;;;5054641;28;20452;-56
2021/11/09 06:47:00;;;;;;;7.95;4.15;;;;;;;;;;5054299;28;20116;-53
2021/11/09 06:49:26;;;;;;;7.07;4.57;;;;;;;;;;5054740;28;20395;-54
2021/11/09 06:51:52;;;;;;;5.30;4.22;;;;;;;;;;5054492;28;20399;-56
2021/11/09 06:54:18;;;;;;;11.30;5.05;;;;;;;;;;5054674;28;20434;-55
2021/11/09 06:56:45;;;;;;;6.25;4.10;;;;;;;;;;5053827;28;20025;-56
2021/11/09 06:59:11;;;;;;;5.05;4.13;;;;;;;;;;5054392;28;20025;-55
2021/11/09 07:01:37;;;;;;;10.82;4.70;;;;;;;;;;5054197;28;20060;-56
2021/11/09 07:04:03;;;;;;;5.70;4.03;;;;;;;;;;5054392;28;20059;-56
2021/11/09 07:06:30;;;;;;;7.30;4.72;;;;;;;;;;5054098;28;20509;-57
2021/11/09 07:08:56;;;;;;;6.30;4.50;;;;;;;;;;5054399;28;20021;-55
2021/11/09 07:11:22;;;;;;;8.23;4.45;;;;;;;;;;5054284;28;20168;-56
2021/11/09 07:13:48;;;;;;;6.00;3.90;;;;;;;;;;5054039;28;20025;-55
2021/11/09 07:16:15;;;;;;;7.40;3.83;;;;;;;;;;5053508;28;20142;-56
2021/11/09 07:18:41;;;;;;;4.60;3.30;;;;;;;;;;5053969;28;20459;-56
2021/11/09 07:21:08;;;;;;;9.02;4.15;;;;;;;;;;5054357;28;20029;-56
2021/11/09 07:23:34;;;;;;;6.80;4.18;;;;;;;;;;5054009;28;20516;-54
2021/11/09 07:26:00;;;;;;;7.43;4.57;;;;;;;;;;5053200;28;20033;-56
2021/11/09 07:28:27;;;;;;;5.35;4.10;;;;;;;;;;5052695;28;20029;-54
2021/11/09 07:31:02;;;;;;;6.20;3.53;;;;;;;;;;5054197;28;20036;-55
2021/11/09 07:33:28;;;;;;;7.43;4.53;;;;;;;;;;5053740;28;20456;-56
2021/11/09 07:35:54;;;;;;;8.68;3.90;;;;;;;;;;5053783;28;20048;-52
2021/11/09 07:38:20;;;;;;;7.15;4.57;;;;;;;;;;5051727;28;20241;-54
2021/11/09 07:40:47;;;;;;;8.52;4.05;;;;;;;;;;5051641;28;20039;-56
2021/11/09 07:43:13;;;;;;;4.78;4.15;;;;;;;;;;5051958;28;20032;-56
2021/11/09 07:45:39;;;;;;;6.72;4.38;;;;;;;;;;5053021;28;20024;-57
2021/11/09 07:48:05;;;;;;;7.78;4.13;;;;;;;;;;5050398;28;20163;-57
2021/11/09 07:50:32;;;;;;;5.38;3.97;;;;;;;;;;5053174;28;20121;-56
2021/11/09 07:52:59;;;;;;;6.45;5.20;;;;;;;;;;5053340;28;20357;-56
2021/11/09 07:55:26;;;;;;;6.95;4.50;;;;;;;;;;5053211;28;20090;-57
2021/11/09 07:58:02;;;;;;;4.80;4.25;;;;;;;;;;5050459;28;20040;-55
2021/11/09 08:00:40;;;;;;;7.72;5.18;;;;;;;;;;5053613;28;20041;-52
2021/11/09 08:03:12;;;;;;;7.45;4.13;;;;;;;;;;5052348;28;20501;-56
2021/11/09 08:06:06;;;;;;;7.40;4.97;;;;;;;;;;5053275;28;20104;-55
2021/11/09 08:08:39;;;;;;;7.15;5.25;;;;;;;;;;5052552;28;20509;-57
2021/11/09 08:11:05;;;;;;;11.52;5.97;;;;;;;;;;5052515;28;20083;-55
2021/11/09 08:13:31;;;;;;;6.78;4.90;;;;;;;;;;5051810;28;20028;-55
2021/11/09 08:15:57;;;;;;;6.18;4.85;;;;;;;;;;5053102;28;20025;-57
2021/11/09 08:18:23;;;;;;;5.07;3.78;;;;;;;;;;5052370;28;20499;-55
2021/11/09 08:20:49;;;;;;;7.72;3.50;;;;;;;;;;5051975;28;20104;-56
2021/11/09 08:23:16;;;;;;;6.55;3.75;;;;;;;;;;5052698;28;20040;-56
2021/11/09 08:25:42;;;;;;;6.63;3.70;;;;;;;;;;5053083;28;20032;-56
2021/11/09 08:28:08;;;;;;;4.18;3.35;;;;;;;;;;5052036;28;20032;-57
2021/11/09 08:30:35;;;;;;;8.93;4.93;;;;;;;;;;5053168;28;20113;-56
2021/11/09 08:33:03;;;;;;;8.90;5.45;;;;;;;;;;5052122;28;20112;-56
2021/11/09 08:35:29;;;;;;;11.57;5.03;;;;;;;;;;5052743;28;20045;-57
2021/11/09 08:37:55;;;;;;;7.72;4.50;;;;;;;;;;5052144;28;20364;-58
2021/11/09 08:40:23;;;;;;;8.32;4.40;;;;;;;;;;5052728;28;20029;-56
2021/11/09 08:42:54;;;;;;;6.25;3.67;;;;;;;;;;5052553;28;20033;-56
2021/11/09 08:45:33;;;;;;;;;;;;;;;;;;5052681;28;20033;-55
2021/11/09 08:48:09;;;;;;;6.18;4.70;;;;;;;;;;5052082;28;19999;-55
2021/11/09 08:50:35;;;;;;;6.30;5.18;;;;;;;;;;5052419;28;20064;-56
2021/11/09 08:53:07;;;;;;;5.20;4.30;;;;;;;;;;5052816;28;20032;-53
2021/11/09 08:55:53;;;;;;;8.85;4.55;;;;;;;;;;5052455;28;20029;-56
2021/11/09 08:58:39;;;;;;;5.82;4.40;;;;;;;;;;5051609;28;20040;-56
2021/11/09 09:01:42;;;;;;;6.57;4.25;;;;;;;;;;5052584;28;20196;-57
2021/11/09 09:04:15;;;;;;;;;;;;;;;;;;5052499;28;20079;-57
2021/11/09 09:06:43;;;;;;;10.00;5.25;;;;;;;;;;5051810;28;20042;-57
2021/11/09 09:09:09;;;;;;;9.82;4.88;;;;;;;;;;5052401;28;20134;-56
2021/11/09 09:11:35;;;;;;;6.10;4.25;;;;;;;;;;5051813;28;20116;-57
2021/11/09 09:14:01;;;;;;;13.88;4.80;;;;;;;;;;5051958;28;20510;-56
2021/11/09 09:16:29;;;;;;;9.50;4.65;;;;;;;;;;5051525;28;20032;-57
2021/11/09 09:18:55;;;;;;;9.95;6.10;;;;;;;;;;5051979;28;20612;-54
2021/11/09 09:24:02;;;;;;;6.60;5.03;;;;;;;;;;5052045;28;20163;-55
2021/11/09 09:26:40;;;;;;;10.50;4.20;;;;;;;;;;5051365;28;20041;-54
2021/11/09 09:56:20;;;;;;;12.13;6.93;;;;;;;;;;5050900;28;20040;-58
2021/11/09 09:58:46;;;;;;;8.57;5.40;;;;;;;;;;5051860;28;20360;-56
2021/11/09 10:01:12;;;;;;;11.85;5.72;;;;;;;;;;5052168;28;20120;-56
2021/11/09 10:03:40;;;;;;;8.23;6.47;;;;;;;;;;5051402;28;20024;-56
2021/11/09 10:06:09;;;;;;;7.85;5.43;;;;;;;;;;5051562;28;20050;-58
2021/11/09 10:08:55;;;;;;;6.07;5.20;;;;;;;;;;5051459;28;20021;-57
2021/11/09 10:11:30;;;;;;;11.50;5.68;;;;;;;;;;5051691;28;20036;-55
2021/11/09 10:13:56;;;;;;;8.60;6.22;;;;;;;;;;5051600;28;20032;-57
2021/11/09 10:16:22;;;;;;;9.00;4.93;;;;;;;;;;5050593;28;20029;-57
2021/11/09 10:18:48;;;;;;;8.85;5.47;;;;;;;;;;5051255;28;20471;-57
2021/11/09 10:21:14;;;;;;;14.57;5.70;;;;;;;;;;5051370;28;20039;-58
2021/11/09 10:23:41;;;;;;;9.23;6.43;;;;;;;;;;5051400;28;20067;-57
2021/11/09 10:26:14;;;;;;;7.38;5.55;;;;;;;;;;5051734;28;20032;-57
2021/11/09 10:28:40;;;;;;;8.80;5.88;;;;;;;;;;5055233;28;20025;-56
2021/11/09 10:31:07;;;;;;;7.00;5.90;;;;;;;;;;5054922;28;20119;-58
2021/11/09 10:33:50;;;;;;;10.43;6.25;;;;;;;;;;5054150;28;20196;-58
2021/11/09 10:36:22;;;;;;;7.57;5.97;;;;;;;;;;5054472;28;20051;-56
2021/11/09 10:38:48;;;;;;;11.25;5.40;;;;;;;;;;5055168;28;20036;-58
2021/11/09 10:41:15;;;;;;;5.72;4.65;;;;;;;;;;5054939;28;20033;-57
2021/11/09 10:43:41;;;;;;;10.05;5.55;;;;;;;;;;5054867;28;20040;-58
2021/11/09 10:46:07;;;;;;;5.65;4.18;;;;;;;;;;5051309;28;20025;-58
2021/11/09 10:48:35;;;;;;;6.47;3.40;;;;;;;;;;5054289;28;20033;-56
2021/11/09 10:51:02;;;;;;;14.05;4.63;;;;;;;;;;5054763;28;20037;-57
2021/11/09 10:53:33;;;;;;;6.10;3.70;;;;;;;;;;5054657;28;20459;-57
2021/11/09 11:06:10;;;;;;;5.43;3.90;;;;;;;;;;5054021;28;20032;-55
2021/11/09 11:08:37;;;;;;;8.10;3.85;;;;;;;;;;5054350;28;20025;-55
2021/11/09 11:11:16;;;;;;;6.15;3.47;;;;;;;;;;5054201;28;20032;-55
2021/11/09 11:13:42;;;;;;;6.03;3.30;;;;;;;;;;5053840;28;20029;-56
2021/11/09 11:16:10;;;;;;;4.30;3.00;;;;;;;;;;5053798;28;20051;-57
2021/11/09 11:18:38;;;;;;;6.85;3.88;;;;;;;;;;5054226;28;20055;-56
2021/11/09 11:21:04;;;;;;;7.55;3.40;;;;;;;;;;5054121;28;20131;-56
2021/11/09 11:23:30;;;;;;;6.80;3.60;;;;;;;;;;5054072;28;20021;-54
2021/11/09 11:25:57;;;;;;;4.25;2.95;;;;;;;;;;5053903;28;20021;-57
2021/11/09 11:28:24;;;;;;;7.05;2.58;;;;;;;;;;5053651;28;20095;-57
2021/11/09 11:30:52;;;;;;;5.82;2.67;;;;;;;;;;5053845;28;20056;-54
2021/11/09 11:33:18;;;;;;;7.32;2.47;;;;;;;;;;5054000;28;20040;-57
2021/11/09 11:35:45;;;;;;;5.05;2.88;;;;;;;;;;5054077;28;20033;-57
2021/11/09 11:38:11;;;;;;;7.22;2.60;;;;;;;;;;5053115;28;20071;-57
2021/11/09 11:40:37;;;;;;;7.57;2.75;;;;;;;;;;5053347;28;20036;-56
2021/11/09 11:43:03;;;;;;;4.28;2.67;;;;;;;;;;5053951;28;20379;-57
2021/11/09 11:45:44;;;;;;;6.45;2.55;;;;;;;;;;5053636;28;20036;-57
2021/11/09 11:48:11;;;;;;;7.20;2.33;;;;;;;;;;5052894;28;20025;-56
2021/11/09 11:50:40;;;;;;;2.63;1.73;;;;;;;;;;5053375;28;20029;-57
2021/11/09 11:53:06;;;;;;;2.75;1.92;;;;;;;;;;5053484;28;20029;-57
2021/11/09 11:55:32;;;;;;;5.25;2.53;;;;;;;;;;5053491;28;20032;-54
2021/11/09 11:58:07;;;;;;;5.50;2.08;;;;;;;;;;5052904;28;20053;-56
2021/11/09 12:00:42;;;;;;;3.70;2.28;;;;;;;;;;5053461;28;20466;-56
2021/11/09 12:03:24;;;;;;;6.30;3.80;;;;;;;;;;5052975;28;20029;-57
2021/11/09 12:05:54;;;;;;;5.53;2.75;;;;;;;;;;5053366;28;20060;-57
2021/11/09 12:08:32;;;;;;;5.15;2.45;;;;;;;;;;5052925;28;20347;-56
2021/11/09 12:10:58;;;;;;;6.32;2.67;;;;;;;;;;5053063;28;20056;-57
2021/11/09 12:13:24;;;;;;;5.93;2.90;;;;;;;;;;5053052;28;20104;-57
2021/11/09 12:15:52;;;;;;;7.55;2.80;;;;;;;;;;5052347;28;20071;-57
2021/11/09 12:18:42;;;;;;;6.50;2.63;;;;;;;;;;5052568;28;20032;-56
2021/11/09 12:21:34;;;;;;;5.47;2.30;;;;;;;;;;5053162;28;20021;-57
2021/11/09 12:24:17;;;;;;;3.28;2.30;;;;;;;;;;5052989;28;20029;-57
2021/11/09 12:26:44;;;;;;;3.85;2.58;;;;;;;;;;5051994;28;20025;-57
2021/11/09 12:29:30;;;;;;;5.57;2.53;;;;;;;;;;5052303;28;20017;-57
2021/11/09 12:31:56;;;;;;;8.25;2.33;;;;;;;;;;5052651;28;20037;-55
2021/11/09 12:34:42;;;;;;;5.05;2.25;;;;;;;;;;5052498;28;20140;-57
2021/11/09 12:37:17;;;;;;;4.43;3.20;;;;;;;;;;5051889;28;20037;-56
2021/11/09 12:39:43;;;;;;;2.33;1.90;;;;;;;;;;5052737;28;20422;-56
2021/11/09 12:42:09;;;;;;;3.70;2.60;;;;;;;;;;5052168;28;20037;-57
2021/11/09 12:44:35;;;;;;;3.78;2.15;;;;;;;;;;5051960;28;20025;-57
2021/11/09 12:47:09;;;;;;;3.00;2.10;;;;;;;;;;5051543;28;20033;-57
2021/11/09 12:49:38;;;;;;;4.80;2.22;;;;;;;;;;5051944;28;20372;-57
2021/11/09 12:52:04;;;;;;;4.80;2.42;;;;;;;;;;5052364;28;20053;-54
2021/11/09 12:54:30;;;;;;;5.93;2.47;;;;;;;;;;5051858;28;20051;-58
2021/11/09 12:57:01;;;;;;;4.60;2.90;;;;;;;;;;5051740;28;20383;-57
2021/11/09 12:59:40;;;;;;;4.18;2.53;;;;;;;;;;5052437;28;20108;-58
2021/11/09 13:02:17;;;;;;;4.22;2.50;;;;;;;;;;5052560;28;20036;-58
2021/11/09 13:07:36;;;;;;;4.47;2.22;;;;;;;;;;5051396;28;20037;-58
2021/11/09 13:10:13;;;;;;;2.78;2.28;;;;;;;;;;5051921;28;20382;-58
2021/11/09 13:12:41;;;;;;;9.10;2.85;;;;;;;;;;5052201;28;20107;-58
2021/11/09 13:15:08;;;;;;;9.98;2.63;;;;;;;;;;5050914;28;20027;-58
2021/11/09 13:17:36;;;;;;;6.07;3.08;;;;;;;;;;5050078;28;20513;-55
2021/11/09 13:20:07;;;;;;;3.80;1.83;;;;;;;;;;5051183;28;20119;-57
2021/11/09 13:22:33;;;;;;;3.45;1.80;;;;;;;;;;5050388;28;20378;-57
2021/11/09 13:25:07;;;;;;;5.78;2.85;;;;;;;;;;5050089;28;20032;-58
2021/11/09 13:27:50;;;;;;;3.90;2.30;;;;;;;;;;5050567;28;20029;-58
2021/11/09 13:30:18;;;;;;;3.95;2.33;;;;;;;;;;5052053;28;20025;-58
2021/11/09 13:32:46;;;;;;;5.57;2.45;;;;;;;;;;5051806;28;20078;-58
2021/11/09 13:35:39;;;;;;;5.22;2.65;;;;;;;;;;5051537;28;20033;-57
2021/11/09 13:38:10;;;;;;;3.15;1.95;;;;;;;;;;5028770;28;20042;-58
2021/11/09 13:40:36;;;;;;;7.72;3.17;;;;;;;;;;5049416;28;20120;-59
2021/11/09 13:43:04;;;;;;;3.97;2.70;;;;;;;;;;5052252;28;20032;-58
2021/11/09 13:45:30;;;;;;;4.10;1.90;;;;;;;;;;5051512;28;20025;-57
2021/11/09 13:47:57;;;;;;;4.35;2.63;;;;;;;;;;5050573;28;20739;-58
2021/11/09 13:50:26;;;;;;;5.45;2.83;;;;;;;;;;5051618;28;20056;-57
2021/11/09 13:52:52;;;;;;;4.18;2.08;;;;;;;;;;5049820;28;20037;-58
2021/11/09 13:55:20;;;;;;;4.07;2.35;;;;;;;;;;5051804;28;20464;-57
2021/11/09 13:57:46;;;;;;;6.30;3.15;;;;;;;;;;5050939;28;20029;-57
2021/11/09 14:00:19;;;;;;;4.85;2.50;;;;;;;;;;5051623;28;20471;-56
2021/11/09 14:02:57;;;;;;;4.43;2.60;;;;;;;;;;5054422;28;20467;-58
2021/11/09 14:11:15;;;;;;;5.05;2.13;;;;;;;;;;5055675;28;20178;-57
2021/11/09 14:14:26;;;;;;;2.88;1.92;;;;;;;;;;5055351;28;20227;-57
2021/11/09 14:16:53;;;;;;;5.28;2.42;;;;;;;;;;5050233;28;20068;-59
2021/11/09 14:19:27;;;;;;;4.45;1.80;;;;;;;;;;5054670;28;20061;-58
2021/11/09 14:21:54;;;;;;;2.70;1.92;;;;;;;;;;5055414;28;20025;-58
2021/11/09 14:24:24;;;;;;;6.50;2.50;;;;;;;;;;5055128;28;20021;-58
2021/11/09 14:27:04;;;;;;;4.93;2.15;;;;;;;;;;5054574;28;20027;-58
2021/11/09 14:29:33;;;;;;;3.15;1.80;;;;;;;;;;5055068;28;20129;-57
2021/11/09 14:32:19;;;;;;;4.95;2.70;;;;;;;;;;5055179;28;20052;-59
2021/11/09 14:37:55;;;;;;;6.60;2.28;;;;;;;;;;5045401;28;20040;-57
2021/11/09 14:40:30;;;;;;;3.15;1.83;;;;;;;;;;5055176;28;20112;-57
2021/11/09 14:43:06;;;;;;;4.63;2.17;;;;;;;;;;5054973;28;20028;-58
2021/11/09 14:48:10;;;;;;;6.40;2.30;;;;;;;;;;5053692;28;20025;-57
2021/11/09 14:50:48;;;;;;;7.22;2.70;;;;;;;;;;5034851;28;20037;-56
2021/11/09 14:53:18;;;;;;;3.78;2.28;;;;;;;;;;5034970;28;20033;-57
2021/11/09 14:55:50;;;;;;;2.92;1.88;;;;;;;;;;5034782;28;20495;-58
2021/11/09 14:58:28;;;;;;;6.15;2.10;;;;;;;;;;5033831;28;20037;-58
2021/11/09 15:00:58;;;;;;;4.22;2.03;;;;;;;;;;5034768;28;20030;-58
2021/11/09 15:03:24;;;;;;;4.65;2.53;;;;;;;;;;5047663;28;20036;-58
2021/11/09 15:05:52;;;;;;;4.28;2.13;;;;;;;;;;5054411;28;20529;-56
2021/11/09 15:08:28;;;;;;;4.30;1.90;;;;;;;;;;5053835;28;20021;-58
2021/11/09 15:11:06;;;;;;;3.72;2.20;;;;;;;;;;5054230;28;20047;-59
2021/11/09 15:29:50;;;;;;;6.70;2.88;;;;;;;;;;5054255;28;20032;-56
2021/11/09 15:32:49;;;;;;;5.57;2.38;;;;;;;;;;5053878;28;20041;-56
2021/11/09 15:37:40;;;;;;;4.72;2.42;;;;;;;;;;5053136;28;20033;-56
2021/11/09 15:40:10;;;;;;;2.50;1.65;;;;;;;;;;5053663;28;20339;-55
2021/11/09 15:42:37;;;;;;;4.78;1.83;;;;;;;;;;5053887;28;20479;-57
2021/11/09 15:45:04;;;;;;;5.80;2.28;;;;;;;;;;5053665;28;20040;-57
2021/11/09 15:47:30;;;;;;;4.35;2.60;;;;;;;;;;5052547;28;20045;-57
2021/11/09 15:49:56;;;;;;;3.67;2.33;;;;;;;;;;5053584;28;20083;-56
2021/11/09 15:52:22;;;;;;;3.55;2.55;;;;;;;;;;5053147;28;20107;-57
2021/11/09 15:54:48;;;;;;;6.68;2.60;;;;;;;;;;5053254;28;20431;-57
2021/11/09 15:57:14;;;;;;;8.98;3.17;;;;;;;;;;5052962;28;20033;-55
2021/11/09 15:59:41;;;;;;;3.65;2.88;;;;;;;;;;5053186;28;20041;-55
2021/11/09 16:02:07;;;;;;;3.95;2.42;;;;;;;;;;5053455;28;20021;-57
2021/11/09 16:04:42;;;;;;;6.30;3.00;;;;;;;;;;5053158;28;20463;-57
2021/11/09 16:07:08;;;;;;;3.83;2.58;;;;;;;;;;5052518;28;20367;-57
2021/11/09 16:09:35;;;;;;;6.38;2.70;;;;;;;;;;5053336;28;20383;-56
2021/11/09 16:12:01;;;;;;;7.90;2.35;;;;;;;;;;5052971;28;20036;-57
2021/11/09 16:14:27;;;;;;;3.97;2.33;;;;;;;;;;5045135;28;20029;-57
2021/11/09 16:16:53;;;;;;;3.67;2.22;;;;;;;;;;5046814;28;20028;-56
2021/11/09 16:19:19;;;;;;;7.20;2.67;;;;;;;;;;5052963;28;20023;-57
2021/11/09 16:21:47;;;;;;;5.57;2.13;;;;;;;;;;5052885;28;20021;-57
2021/11/09 16:24:14;;;;;;;5.90;2.17;;;;;;;;;;5052054;28;20032;-55
2021/11/09 16:26:41;;;;;;;9.85;2.58;;;;;;;;;;5051631;28;20029;-56
2021/11/09 16:29:07;;;;;;;3.90;1.95;;;;;;;;;;5052847;28;20032;-58
2021/11/09 16:31:33;;;;;;;7.70;2.58;;;;;;;;;;5052752;28;20375;-58
2021/11/09 16:33:59;;;;;;;4.82;2.90;;;;;;;;;;5053031;28;20079;-58
2021/11/09 16:36:27;;;;;;;7.25;3.28;;;;;;;;;;5052215;28;20383;-57
2021/11/09 16:38:57;;;;;;;4.80;2.00;;;;;;;;;;5052474;28;20025;-55
2021/11/09 16:41:27;;;;;;;5.90;3.28;;;;;;;;;;5052881;28;20208;-57
2021/11/09 16:43:57;;;;;;;5.88;3.00;;;;;;;;;;5052671;28;20108;-57
2021/11/09 16:49:26;;;;;;;5.82;3.53;;;;;;;;;;5052316;28;20549;-57
2021/11/09 16:51:41;;;;;;;5.85;2.58;;;;;;;;;;5050689;28;20145;-58
2021/11/09 16:57:04;;;;;;;7.25;3.70;;;;;;;;;;5049225;28;20048;-58
2021/11/09 17:10:41;;;;;;;8.50;4.32;;;;;;;;;;5051345;28;20534;-58
2021/11/09 18:03:59;;;;;;;6.90;3.30;;;;;;;;;;5055022;28;20070;-57
2021/11/09 18:20:42;;;;;;;5.97;4.82;;;;;;;;;;5054800;28;20239;-57
2021/11/09 18:23:08;;;;;;;7.20;4.03;;;;;;;;;;5054413;28;20418;-58
2021/11/09 18:25:34;;;;;;;9.88;5.15;;;;;;;;;;5054077;28;20025;-58
2021/11/09 18:28:00;;;;;;;5.93;4.50;;;;;;;;;;5052176;28;20029;-57
2021/11/09 18:30:28;;;;;;;6.85;3.75;;;;;;;;;;5053617;28;20463;-58
2021/11/09 18:32:55;;;;;;;13.20;4.78;;;;;;;;;;5052684;28;20036;-56
2021/11/09 18:35:22;;;;;;;11.18;4.93;;;;;;;;;;5052074;28;20040;-58
2021/11/09 18:37:52;;;;;;;8.35;4.60;;;;;;;;;;5050927;28;20025;-58
2021/11/09 18:40:19;;;;;;;5.88;3.97;;;;;;;;;;5052475;28;20106;-57
2021/11/09 18:42:47;;;;;;;5.90;4.30;;;;;;;;;;5052593;28;20099;-58
2021/11/09 18:45:16;;;;;;;9.50;4.75;;;;;;;;;;5053950;28;20056;-58